JJA1326 RJBB-RKSS
Flight info
| Callsign | JJA1326 |
|---|---|
| Flight time | 1h 25m |
| Altitude | 38000 |
| Route | OYE Y39 MIHOU Y38 SAPRA Y685 GUKDO GUKDO2T |
| Aircraft | B738/M-SDE2E3FGHIRWXY/LB1 |
Departure
| Time | 2026-05-08 00:04 |
|---|---|
| Airport | Kansai International Airport (RJBB) |
Arrival
| Time | 2026-05-08 01:29 |
|---|---|
| Airport | Gimpo International Airport (RKSS) |
| Time | Latitude | Longitude | Altitude | Speed | Heading |
|---|---|---|---|---|---|
| 2026-05-07 23:29 | 34.43967 | 135.23153 | 28 ft | 0 kts | 141° |
| 2026-05-07 23:54 | 34.43969 | 135.23151 | 28 ft | 3 kts | 141° |
| 2026-05-07 23:54 | 34.43990 | 135.23130 | 28 ft | 4 kts | 141° |
| 2026-05-07 23:55 | 34.44011 | 135.23110 | 28 ft | 4 kts | 144° |
| 2026-05-07 23:55 | 34.44034 | 135.23094 | 28 ft | 4 kts | 163° |
| 2026-05-07 23:55 | 34.44054 | 135.23094 | 28 ft | 2 kts | 228° |
| 2026-05-07 23:55 | 34.44055 | 135.23096 | 28 ft | 1 kts | 231° |
| 2026-05-07 23:58 | 34.44052 | 135.23091 | 28 ft | 2 kts | 231° |
| 2026-05-07 23:58 | 34.44030 | 135.23057 | 28 ft | 7 kts | 231° |
| 2026-05-07 23:58 | 34.44004 | 135.23017 | 28 ft | 5 kts | 235° |
| 2026-05-07 23:58 | 34.44002 | 135.23008 | 28 ft | 1 kts | 260° |
| 2026-05-07 23:59 | 34.44004 | 135.22989 | 28 ft | 4 kts | 284° |
| 2026-05-07 23:59 | 34.44022 | 135.22957 | 28 ft | 6 kts | 318° |
| 2026-05-07 23:59 | 34.44066 | 135.22913 | 28 ft | 10 kts | 321° |
| 2026-05-07 23:59 | 34.44125 | 135.22876 | 28 ft | 7 kts | 358° |
| 2026-05-08 00:00 | 34.44160 | 135.22903 | 28 ft | 7 kts | 55° |
| 2026-05-08 00:00 | 34.44195 | 135.22957 | 28 ft | 10 kts | 51° |
| 2026-05-08 00:00 | 34.44251 | 135.23042 | 28 ft | 15 kts | 51° |
| 2026-05-08 00:00 | 34.44330 | 135.23159 | 28 ft | 20 kts | 51° |
| 2026-05-08 00:01 | 34.44424 | 135.23298 | 28 ft | 22 kts | 51° |
| 2026-05-08 00:01 | 34.44520 | 135.23441 | 31 ft | 21 kts | 51° |
| 2026-05-08 00:01 | 34.44612 | 135.23579 | 31 ft | 21 kts | 50° |
| 2026-05-08 00:01 | 34.44684 | 135.23682 | 31 ft | 9 kts | 39° |
| 2026-05-08 00:02 | 34.44728 | 135.23689 | 30 ft | 6 kts | 338° |
| 2026-05-08 00:02 | 34.44763 | 135.23659 | 31 ft | 6 kts | 322° |
| 2026-05-08 00:02 | 34.44799 | 135.23624 | 32 ft | 7 kts | 322° |
| 2026-05-08 00:02 | 34.44835 | 135.23588 | 35 ft | 5 kts | 308° |
| 2026-05-08 00:03 | 34.44832 | 135.23560 | 35 ft | 3 kts | 241° |
| 2026-05-08 00:03 | 34.44815 | 135.23535 | 35 ft | 5 kts | 232° |
| 2026-05-08 00:03 | 34.44716 | 135.23388 | 34 ft | 56 kts | 231° |
| 2026-05-08 00:03 | 34.44314 | 135.22788 | 28 ft | 125 kts | 231° |
| 2026-05-08 00:04 | 34.43684 | 135.21842 | 297 ft | 154 kts | 232° |
| 2026-05-08 00:04 | 34.42997 | 135.20800 | 1072 ft | 153 kts | 232° |
| 2026-05-08 00:04 | 34.42539 | 135.19637 | 1743 ft | 163 kts | 268° |
| 2026-05-08 00:04 | 34.42898 | 135.18221 | 2074 ft | 193 kts | 295° |
| 2026-05-08 00:05 | 34.43525 | 135.16658 | 2337 ft | 217 kts | 294° |
| 2026-05-08 00:05 | 34.44190 | 135.14970 | 2881 ft | 229 kts | 294° |
| 2026-05-08 00:05 | 34.44913 | 135.13135 | 3364 ft | 247 kts | 294° |
| 2026-05-08 00:05 | 34.45666 | 135.11227 | 4116 ft | 255 kts | 293° |
| 2026-05-08 00:06 | 34.46443 | 135.09261 | 4872 ft | 262 kts | 293° |
| 2026-05-08 00:06 | 34.47231 | 135.07269 | 5760 ft | 262 kts | 292° |
| 2026-05-08 00:06 | 34.48019 | 135.05273 | 6616 ft | 264 kts | 292° |
| 2026-05-08 00:06 | 34.48815 | 135.03256 | 7403 ft | 266 kts | 291° |
| 2026-05-08 00:07 | 34.49617 | 135.01219 | 8202 ft | 269 kts | 291° |
| 2026-05-08 00:07 | 34.50198 | 134.99086 | 8982 ft | 266 kts | 271° |
| 2026-05-08 00:07 | 34.50255 | 134.96852 | 9812 ft | 266 kts | 267° |
| 2026-05-08 00:07 | 34.50286 | 134.94627 | 10422 ft | 273 kts | 267° |
| 2026-05-08 00:08 | 34.50322 | 134.92225 | 10601 ft | 297 kts | 268° |
| 2026-05-08 00:08 | 34.50365 | 134.89616 | 10817 ft | 319 kts | 268° |
| 2026-05-08 00:08 | 34.50415 | 134.86883 | 11374 ft | 328 kts | 267° |
| 2026-05-08 00:08 | 34.50304 | 134.84135 | 12150 ft | 325 kts | 260° |
| 2026-05-08 00:09 | 34.49980 | 134.81429 | 12987 ft | 324 kts | 257° |
| 2026-05-08 00:09 | 34.49598 | 134.78739 | 13792 ft | 324 kts | 257° |
| 2026-05-08 00:09 | 34.49207 | 134.76036 | 14480 ft | 327 kts | 257° |
| 2026-05-08 00:09 | 34.48820 | 134.73304 | 15177 ft | 330 kts | 257° |
| 2026-05-08 00:10 | 34.48443 | 134.70559 | 15894 ft | 332 kts | 258° |
| 2026-05-08 00:10 | 34.48070 | 134.67792 | 16594 ft | 334 kts | 258° |
| 2026-05-08 00:10 | 34.47698 | 134.64995 | 17256 ft | 337 kts | 258° |
| 2026-05-08 00:10 | 34.47325 | 134.62170 | 17890 ft | 341 kts | 258° |
| 2026-05-08 00:11 | 34.46949 | 134.59317 | 18456 ft | 345 kts | 259° |
| 2026-05-08 00:11 | 34.46572 | 134.56444 | 19005 ft | 347 kts | 259° |
| 2026-05-08 00:11 | 34.46191 | 134.53547 | 19572 ft | 349 kts | 259° |
| 2026-05-08 00:11 | 34.45806 | 134.50630 | 20123 ft | 351 kts | 259° |
| 2026-05-08 00:12 | 34.45420 | 134.47698 | 20665 ft | 354 kts | 259° |
| 2026-05-08 00:12 | 34.45028 | 134.44738 | 21184 ft | 356 kts | 259° |
| 2026-05-08 00:12 | 34.44635 | 134.41763 | 21690 ft | 359 kts | 259° |
| 2026-05-08 00:12 | 34.44237 | 134.38766 | 22198 ft | 362 kts | 259° |
| 2026-05-08 00:13 | 34.43835 | 134.35747 | 22683 ft | 364 kts | 259° |
| 2026-05-08 00:13 | 34.43477 | 134.32692 | 23141 ft | 369 kts | 265° |
| 2026-05-08 00:13 | 34.43724 | 134.29566 | 23609 ft | 379 kts | 278° |
| 2026-05-08 00:13 | 34.44535 | 134.26542 | 24120 ft | 388 kts | 288° |
| 2026-05-08 00:14 | 34.46002 | 134.23691 | 24658 ft | 402 kts | 301° |
| 2026-05-08 00:14 | 34.47825 | 134.21081 | 25017 ft | 408 kts | 303° |
| 2026-05-08 00:14 | 34.49726 | 134.18499 | 25365 ft | 412 kts | 304° |
| 2026-05-08 00:14 | 34.51629 | 134.15942 | 25721 ft | 415 kts | 304° |
| 2026-05-08 00:15 | 34.53559 | 134.13331 | 26084 ft | 416 kts | 304° |
| 2026-05-08 00:15 | 34.55485 | 134.10699 | 26449 ft | 418 kts | 303° |
| 2026-05-08 00:15 | 34.57412 | 134.08041 | 26783 ft | 420 kts | 303° |
| 2026-05-08 00:15 | 34.59339 | 134.05367 | 27108 ft | 423 kts | 303° |
| 2026-05-08 00:16 | 34.61278 | 134.02668 | 27435 ft | 425 kts | 303° |
| 2026-05-08 00:16 | 34.63224 | 133.99955 | 27749 ft | 427 kts | 303° |
| 2026-05-08 00:16 | 34.65182 | 133.97223 | 28066 ft | 429 kts | 303° |
| 2026-05-08 00:16 | 34.67146 | 133.94481 | 28378 ft | 431 kts | 303° |
| 2026-05-08 00:17 | 34.69121 | 133.91723 | 28687 ft | 433 kts | 303° |
| 2026-05-08 00:17 | 34.70432 | 133.89891 | 28902 ft | 435 kts | 303° |
| 2026-05-08 00:17 | 34.72423 | 133.87108 | 29207 ft | 437 kts | 303° |
| 2026-05-08 00:17 | 34.74440 | 133.84320 | 29462 ft | 442 kts | 305° |
| 2026-05-08 00:18 | 34.77524 | 133.80973 | 29875 ft | 454 kts | 314° |
| 2026-05-08 00:18 | 34.79219 | 133.79395 | 30122 ft | 454 kts | 314° |
| 2026-05-08 00:18 | 34.81733 | 133.77094 | 30513 ft | 452 kts | 314° |
| 2026-05-08 00:18 | 34.84211 | 133.74826 | 30929 ft | 449 kts | 314° |
| 2026-05-08 00:19 | 34.86718 | 133.72511 | 31341 ft | 446 kts | 314° |
| 2026-05-08 00:19 | 34.89143 | 133.70248 | 31727 ft | 444 kts | 313° |
| 2026-05-08 00:19 | 34.91587 | 133.67953 | 32099 ft | 443 kts | 313° |
| 2026-05-08 00:19 | 34.94018 | 133.65662 | 32493 ft | 441 kts | 313° |
| 2026-05-08 00:20 | 34.96438 | 133.63379 | 32904 ft | 438 kts | 313° |
| 2026-05-08 00:20 | 34.98851 | 133.61104 | 33319 ft | 437 kts | 313° |
| 2026-05-08 00:20 | 35.01248 | 133.58843 | 33693 ft | 435 kts | 313° |
| 2026-05-08 00:20 | 35.03635 | 133.56589 | 34103 ft | 432 kts | 313° |
| 2026-05-08 00:21 | 35.06003 | 133.54351 | 34440 ft | 430 kts | 313° |
| 2026-05-08 00:21 | 35.08369 | 133.52109 | 34676 ft | 431 kts | 313° |
| 2026-05-08 00:21 | 35.10741 | 133.49857 | 34935 ft | 431 kts | 313° |
| 2026-05-08 00:21 | 35.13109 | 133.47610 | 35256 ft | 429 kts | 313° |
| 2026-05-08 00:22 | 35.15461 | 133.45378 | 35574 ft | 428 kts | 312° |
| 2026-05-08 00:22 | 35.17806 | 133.43149 | 35832 ft | 427 kts | 312° |
| 2026-05-08 00:22 | 35.20154 | 133.40916 | 36051 ft | 428 kts | 312° |
| 2026-05-08 00:22 | 35.22498 | 133.38685 | 36313 ft | 427 kts | 312° |
| 2026-05-08 00:23 | 35.24835 | 133.36460 | 36636 ft | 425 kts | 312° |
| 2026-05-08 00:23 | 35.27162 | 133.34243 | 36919 ft | 423 kts | 312° |
| 2026-05-08 00:23 | 35.29480 | 133.32033 | 37226 ft | 422 kts | 312° |
| 2026-05-08 00:23 | 35.31800 | 133.29817 | 37452 ft | 423 kts | 312° |
| 2026-05-08 00:24 | 35.34121 | 133.27597 | 37651 ft | 423 kts | 312° |
| 2026-05-08 00:24 | 35.36431 | 133.25389 | 37883 ft | 421 kts | 312° |
| 2026-05-08 00:24 | 35.41062 | 133.20955 | 37863 ft | 422 kts | 312° |
| 2026-05-08 00:25 | 35.45682 | 133.16527 | 37866 ft | 421 kts | 312° |
| 2026-05-08 00:25 | 35.50242 | 133.12020 | 37864 ft | 414 kts | 304° |
| 2026-05-08 00:26 | 35.51945 | 133.09333 | 37880 ft | 397 kts | 292° |
| 2026-05-08 00:26 | 35.53197 | 133.06349 | 37871 ft | 390 kts | 284° |
| 2026-05-08 00:26 | 35.54359 | 132.99945 | 37878 ft | 385 kts | 273° |
| 2026-05-08 00:27 | 35.55128 | 132.93416 | 37863 ft | 387 kts | 273° |
| 2026-05-08 00:27 | 35.55926 | 132.86862 | 37860 ft | 388 kts | 274° |
| 2026-05-08 00:28 | 35.56739 | 132.80312 | 37865 ft | 388 kts | 274° |
| 2026-05-08 00:28 | 35.57550 | 132.73774 | 37869 ft | 386 kts | 274° |
| 2026-05-08 00:29 | 35.58359 | 132.67257 | 37875 ft | 385 kts | 274° |
| 2026-05-08 00:29 | 35.59204 | 132.60809 | 37881 ft | 384 kts | 274° |
| 2026-05-08 00:30 | 35.60058 | 132.54350 | 37891 ft | 383 kts | 274° |
| 2026-05-08 00:30 | 35.60903 | 132.47897 | 37890 ft | 382 kts | 274° |
| 2026-05-08 00:31 | 35.61740 | 132.41460 | 37897 ft | 381 kts | 274° |
| 2026-05-08 00:31 | 35.62570 | 132.35040 | 37890 ft | 380 kts | 274° |
| 2026-05-08 00:32 | 35.63397 | 132.28618 | 37899 ft | 379 kts | 274° |
| 2026-05-08 00:32 | 35.64216 | 132.22221 | 37898 ft | 379 kts | 274° |
| 2026-05-08 00:33 | 35.65033 | 132.15820 | 37898 ft | 379 kts | 274° |
| 2026-05-08 00:33 | 35.65844 | 132.09429 | 37902 ft | 378 kts | 274° |
| 2026-05-08 00:34 | 35.66654 | 132.03027 | 37899 ft | 378 kts | 274° |
| 2026-05-08 00:34 | 35.67458 | 131.96642 | 37895 ft | 378 kts | 274° |
| 2026-05-08 00:35 | 35.68259 | 131.90252 | 37898 ft | 378 kts | 274° |
| 2026-05-08 00:35 | 35.69056 | 131.83869 | 37902 ft | 378 kts | 274° |
| 2026-05-08 00:36 | 35.69850 | 131.77480 | 37904 ft | 378 kts | 274° |
| 2026-05-08 00:36 | 35.70635 | 131.71129 | 37903 ft | 378 kts | 274° |
| 2026-05-08 00:37 | 35.71422 | 131.64741 | 37908 ft | 378 kts | 274° |
| 2026-05-08 00:38 | 35.72596 | 131.55157 | 37904 ft | 377 kts | 274° |
| 2026-05-08 00:38 | 35.73373 | 131.48769 | 37904 ft | 377 kts | 273° |
| 2026-05-08 00:39 | 35.74148 | 131.42380 | 37908 ft | 377 kts | 273° |
| 2026-05-08 00:39 | 35.74918 | 131.35999 | 37906 ft | 377 kts | 273° |
| 2026-05-08 00:40 | 35.75683 | 131.29626 | 37910 ft | 376 kts | 273° |
| 2026-05-08 00:40 | 35.76445 | 131.23253 | 37909 ft | 376 kts | 273° |
| 2026-05-08 00:41 | 35.77203 | 131.16889 | 37912 ft | 376 kts | 273° |
| 2026-05-08 00:41 | 35.77956 | 131.10530 | 37905 ft | 375 kts | 273° |
| 2026-05-08 00:42 | 35.78705 | 131.04179 | 37916 ft | 375 kts | 273° |
| 2026-05-08 00:42 | 35.79445 | 130.97877 | 37921 ft | 374 kts | 273° |
| 2026-05-08 00:43 | 35.80186 | 130.91536 | 37905 ft | 374 kts | 273° |
| 2026-05-08 00:43 | 35.80922 | 130.85200 | 37915 ft | 373 kts | 273° |
| 2026-05-08 00:44 | 35.81657 | 130.78855 | 37918 ft | 373 kts | 273° |
| 2026-05-08 00:44 | 35.82387 | 130.72525 | 37927 ft | 373 kts | 273° |
| 2026-05-08 00:45 | 35.83172 | 130.66203 | 37924 ft | 373 kts | 274° |
| 2026-05-08 00:45 | 35.83988 | 130.59879 | 37922 ft | 373 kts | 274° |
| 2026-05-08 00:46 | 35.84792 | 130.53604 | 37929 ft | 373 kts | 274° |
| 2026-05-08 00:46 | 35.85596 | 130.47256 | 37934 ft | 373 kts | 274° |
| 2026-05-08 00:47 | 35.86386 | 130.40982 | 37929 ft | 372 kts | 274° |
| 2026-05-08 00:47 | 35.87175 | 130.34678 | 37932 ft | 372 kts | 274° |
| 2026-05-08 00:48 | 35.87961 | 130.28372 | 37938 ft | 372 kts | 274° |
| 2026-05-08 00:48 | 35.88742 | 130.22081 | 37927 ft | 371 kts | 274° |
| 2026-05-08 00:49 | 35.89520 | 130.15790 | 37936 ft | 371 kts | 274° |
| 2026-05-08 00:49 | 35.90294 | 130.09498 | 37938 ft | 370 kts | 274° |
| 2026-05-08 00:50 | 35.91063 | 130.03220 | 37941 ft | 370 kts | 274° |
| 2026-05-08 00:50 | 35.91822 | 129.96993 | 37940 ft | 369 kts | 274° |
| 2026-05-08 00:51 | 35.92582 | 129.90734 | 37939 ft | 368 kts | 274° |
| 2026-05-08 00:51 | 35.93337 | 129.84488 | 37937 ft | 367 kts | 274° |
| 2026-05-08 00:52 | 35.94083 | 129.78265 | 37939 ft | 366 kts | 274° |
| 2026-05-08 00:52 | 35.94820 | 129.72049 | 37936 ft | 365 kts | 274° |
| 2026-05-08 00:53 | 35.95551 | 129.65859 | 37934 ft | 364 kts | 274° |
| 2026-05-08 00:53 | 35.96278 | 129.59681 | 37931 ft | 363 kts | 274° |
| 2026-05-08 00:54 | 35.97000 | 129.53518 | 37936 ft | 362 kts | 274° |
| 2026-05-08 00:54 | 35.98468 | 129.47495 | 37930 ft | 371 kts | 284° |
| 2026-05-08 00:55 | 36.00907 | 129.41840 | 37942 ft | 378 kts | 295° |
| 2026-05-08 00:55 | 36.03960 | 129.36560 | 37935 ft | 377 kts | 296° |
| 2026-05-08 00:56 | 36.07022 | 129.31312 | 37933 ft | 376 kts | 295° |
| 2026-05-08 00:56 | 36.10079 | 129.26026 | 37942 ft | 378 kts | 296° |
| 2026-05-08 00:57 | 36.13110 | 129.20755 | 37936 ft | 380 kts | 296° |
| 2026-05-08 00:57 | 36.16200 | 129.15366 | 37946 ft | 383 kts | 295° |
| 2026-05-08 00:58 | 36.19280 | 129.09988 | 37954 ft | 387 kts | 296° |
| 2026-05-08 00:58 | 36.22404 | 129.04525 | 37950 ft | 390 kts | 296° |
| 2026-05-08 00:59 | 36.25545 | 128.99026 | 37952 ft | 392 kts | 296° |
| 2026-05-08 00:59 | 36.28692 | 128.93507 | 37950 ft | 392 kts | 296° |
| 2026-05-08 01:00 | 36.31829 | 128.87999 | 37960 ft | 390 kts | 296° |
| 2026-05-08 01:00 | 36.34949 | 128.82506 | 37959 ft | 389 kts | 296° |
| 2026-05-08 01:01 | 36.38048 | 128.77062 | 37965 ft | 388 kts | 296° |
| 2026-05-08 01:01 | 36.41159 | 128.71585 | 37751 ft | 391 kts | 296° |
| 2026-05-08 01:01 | 36.42724 | 128.68820 | 37238 ft | 391 kts | 296° |
| 2026-05-08 01:02 | 36.44285 | 128.66070 | 36672 ft | 387 kts | 296° |
| 2026-05-08 01:02 | 36.45833 | 128.63341 | 36037 ft | 386 kts | 295° |
| 2026-05-08 01:02 | 36.47372 | 128.60621 | 35380 ft | 385 kts | 295° |
| 2026-05-08 01:02 | 36.48910 | 128.57899 | 34697 ft | 384 kts | 294° |
| 2026-05-08 01:03 | 36.50441 | 128.55188 | 34160 ft | 381 kts | 294° |
| 2026-05-08 01:03 | 36.51955 | 128.52509 | 33592 ft | 377 kts | 294° |
| 2026-05-08 01:03 | 36.53457 | 128.49849 | 33073 ft | 373 kts | 294° |
| 2026-05-08 01:03 | 36.54932 | 128.47232 | 32574 ft | 367 kts | 294° |
| 2026-05-08 01:04 | 36.56390 | 128.44644 | 32093 ft | 362 kts | 293° |
| 2026-05-08 01:04 | 36.57827 | 128.42087 | 31631 ft | 358 kts | 294° |
| 2026-05-08 01:04 | 36.59245 | 128.39560 | 31172 ft | 354 kts | 294° |
| 2026-05-08 01:04 | 36.60630 | 128.37094 | 30721 ft | 350 kts | 294° |
| 2026-05-08 01:05 | 36.62035 | 128.34589 | 30268 ft | 347 kts | 294° |
| 2026-05-08 01:05 | 36.63411 | 128.32137 | 29770 ft | 344 kts | 294° |
| 2026-05-08 01:05 | 36.64771 | 128.29747 | 29264 ft | 341 kts | 295° |
| 2026-05-08 01:05 | 36.66142 | 128.27357 | 28787 ft | 337 kts | 295° |
| 2026-05-08 01:06 | 36.67500 | 128.24990 | 28314 ft | 333 kts | 296° |
| 2026-05-08 01:06 | 36.68836 | 128.22656 | 27854 ft | 330 kts | 296° |
| 2026-05-08 01:06 | 36.70164 | 128.20330 | 27384 ft | 327 kts | 296° |
| 2026-05-08 01:06 | 36.71474 | 128.18034 | 26943 ft | 324 kts | 296° |
| 2026-05-08 01:07 | 36.72780 | 128.15742 | 26491 ft | 323 kts | 297° |
| 2026-05-08 01:07 | 36.73657 | 128.14204 | 26194 ft | 321 kts | 297° |
| 2026-05-08 01:07 | 36.74931 | 128.11968 | 25741 ft | 319 kts | 297° |
| 2026-05-08 01:07 | 36.76214 | 128.09715 | 25327 ft | 318 kts | 297° |
| 2026-05-08 01:08 | 36.77496 | 128.07462 | 24880 ft | 318 kts | 298° |
| 2026-05-08 01:08 | 36.78772 | 128.05219 | 24417 ft | 316 kts | 298° |
| 2026-05-08 01:08 | 36.80043 | 128.02980 | 23921 ft | 317 kts | 299° |
| 2026-05-08 01:08 | 36.81318 | 128.00733 | 23481 ft | 315 kts | 299° |
| 2026-05-08 01:09 | 36.82580 | 127.98515 | 22981 ft | 312 kts | 299° |
| 2026-05-08 01:09 | 36.83826 | 127.96320 | 22569 ft | 308 kts | 300° |
| 2026-05-08 01:09 | 36.85055 | 127.94149 | 22143 ft | 304 kts | 300° |
| 2026-05-08 01:09 | 36.86263 | 127.91998 | 21736 ft | 301 kts | 300° |
| 2026-05-08 01:10 | 36.87459 | 127.89862 | 21295 ft | 299 kts | 300° |
| 2026-05-08 01:10 | 36.88646 | 127.87741 | 20902 ft | 296 kts | 300° |
| 2026-05-08 01:10 | 36.89823 | 127.85640 | 20481 ft | 294 kts | 300° |
| 2026-05-08 01:10 | 36.90988 | 127.83560 | 20070 ft | 292 kts | 300° |
| 2026-05-08 01:11 | 36.92147 | 127.81489 | 19665 ft | 290 kts | 301° |
| 2026-05-08 01:11 | 36.93299 | 127.79429 | 19271 ft | 288 kts | 301° |
| 2026-05-08 01:11 | 36.94448 | 127.77389 | 18882 ft | 286 kts | 301° |
| 2026-05-08 01:11 | 36.95580 | 127.75387 | 18489 ft | 283 kts | 302° |
| 2026-05-08 01:12 | 36.96714 | 127.73381 | 18064 ft | 282 kts | 302° |
| 2026-05-08 01:12 | 36.97839 | 127.71390 | 17628 ft | 279 kts | 302° |
| 2026-05-08 01:12 | 36.98953 | 127.69415 | 17227 ft | 276 kts | 302° |
| 2026-05-08 01:12 | 37.00057 | 127.67457 | 16821 ft | 274 kts | 302° |
| 2026-05-08 01:13 | 37.01157 | 127.65515 | 16420 ft | 273 kts | 304° |
| 2026-05-08 01:13 | 37.02510 | 127.63837 | 16031 ft | 277 kts | 319° |
| 2026-05-08 01:13 | 37.04184 | 127.62615 | 15668 ft | 280 kts | 327° |
| 2026-05-08 01:13 | 37.05950 | 127.61582 | 15281 ft | 280 kts | 329° |
| 2026-05-08 01:14 | 37.07724 | 127.60583 | 14894 ft | 279 kts | 329° |
| 2026-05-08 01:14 | 37.09484 | 127.59581 | 14519 ft | 277 kts | 329° |
| 2026-05-08 01:14 | 37.11234 | 127.58567 | 14158 ft | 276 kts | 329° |
| 2026-05-08 01:14 | 37.12941 | 127.57569 | 14046 ft | 266 kts | 329° |
| 2026-05-08 01:15 | 37.14588 | 127.56603 | 13914 ft | 257 kts | 329° |
| 2026-05-08 01:15 | 37.16174 | 127.55657 | 13797 ft | 246 kts | 325° |
| 2026-05-08 01:15 | 37.17484 | 127.54356 | 13543 ft | 240 kts | 309° |
| 2026-05-08 01:15 | 37.18497 | 127.52690 | 13297 ft | 242 kts | 304° |
| 2026-05-08 01:16 | 37.19452 | 127.50946 | 13041 ft | 248 kts | 304° |
| 2026-05-08 01:16 | 37.20437 | 127.49141 | 12775 ft | 253 kts | 304° |
| 2026-05-08 01:16 | 37.21438 | 127.47323 | 12518 ft | 253 kts | 305° |
| 2026-05-08 01:16 | 37.22428 | 127.45532 | 12246 ft | 248 kts | 305° |
| 2026-05-08 01:17 | 37.23414 | 127.43753 | 11829 ft | 250 kts | 305° |
| 2026-05-08 01:17 | 37.24413 | 127.41952 | 11418 ft | 252 kts | 305° |
| 2026-05-08 01:17 | 37.25412 | 127.40150 | 11064 ft | 251 kts | 305° |
| 2026-05-08 01:17 | 37.26408 | 127.38353 | 10718 ft | 250 kts | 305° |
| 2026-05-08 01:18 | 37.27318 | 127.36494 | 10378 ft | 251 kts | 293° |
| 2026-05-08 01:18 | 37.27679 | 127.34339 | 10110 ft | 254 kts | 278° |
| 2026-05-08 01:18 | 37.27549 | 127.32145 | 10013 ft | 250 kts | 268° |
| 2026-05-08 01:18 | 37.27235 | 127.29996 | 9706 ft | 250 kts | 266° |
| 2026-05-08 01:19 | 37.26902 | 127.27861 | 9385 ft | 248 kts | 266° |
| 2026-05-08 01:19 | 37.26584 | 127.25768 | 9164 ft | 242 kts | 267° |
| 2026-05-08 01:19 | 37.26275 | 127.23694 | 8856 ft | 241 kts | 267° |
| 2026-05-08 01:19 | 37.25970 | 127.21635 | 8575 ft | 240 kts | 267° |
| 2026-05-08 01:20 | 37.25671 | 127.19588 | 8287 ft | 237 kts | 268° |
| 2026-05-08 01:20 | 37.25738 | 127.17588 | 7998 ft | 225 kts | 291° |
| 2026-05-08 01:20 | 37.26376 | 127.15854 | 7707 ft | 223 kts | 306° |
| 2026-05-08 01:20 | 37.27422 | 127.14416 | 7399 ft | 225 kts | 317° |
| 2026-05-08 01:21 | 37.28591 | 127.13095 | 7072 ft | 227 kts | 318° |
| 2026-05-08 01:21 | 37.29780 | 127.11766 | 6740 ft | 229 kts | 318° |
| 2026-05-08 01:21 | 37.30973 | 127.10424 | 6413 ft | 231 kts | 317° |
| 2026-05-08 01:21 | 37.32130 | 127.09022 | 6059 ft | 232 kts | 315° |
| 2026-05-08 01:22 | 37.33281 | 127.07589 | 5701 ft | 233 kts | 315° |
| 2026-05-08 01:22 | 37.34457 | 127.06189 | 5373 ft | 233 kts | 318° |
| 2026-05-08 01:22 | 37.35648 | 127.04808 | 5081 ft | 233 kts | 316° |
| 2026-05-08 01:22 | 37.36808 | 127.03404 | 4793 ft | 231 kts | 315° |
| 2026-05-08 01:23 | 37.37939 | 127.01987 | 4569 ft | 227 kts | 315° |
| 2026-05-08 01:23 | 37.39027 | 127.00615 | 4441 ft | 219 kts | 315° |
| 2026-05-08 01:23 | 37.40083 | 126.99274 | 4161 ft | 212 kts | 314° |
| 2026-05-08 01:23 | 37.41104 | 126.97979 | 3900 ft | 206 kts | 315° |
| 2026-05-08 01:24 | 37.42102 | 126.96715 | 3603 ft | 198 kts | 314° |
| 2026-05-08 01:24 | 37.43028 | 126.95535 | 3412 ft | 183 kts | 314° |
| 2026-05-08 01:24 | 37.43918 | 126.94409 | 3118 ft | 177 kts | 314° |
| 2026-05-08 01:24 | 37.44752 | 126.93365 | 2866 ft | 163 kts | 316° |
| 2026-05-08 01:25 | 37.45527 | 126.92405 | 2639 ft | 151 kts | 313° |
| 2026-05-08 01:25 | 37.46214 | 126.91538 | 2464 ft | 133 kts | 313° |
| 2026-05-08 01:25 | 37.46830 | 126.90725 | 2317 ft | 130 kts | 314° |
| 2026-05-08 01:25 | 37.47487 | 126.89925 | 2120 ft | 131 kts | 313° |
| 2026-05-08 01:26 | 37.48114 | 126.89121 | 1948 ft | 128 kts | 313° |
| 2026-05-08 01:26 | 37.48743 | 126.88326 | 1786 ft | 128 kts | 313° |
| 2026-05-08 01:26 | 37.49384 | 126.87514 | 1588 ft | 130 kts | 314° |
| 2026-05-08 01:26 | 37.50026 | 126.86736 | 1403 ft | 127 kts | 312° |
| 2026-05-08 01:27 | 37.50644 | 126.85920 | 1246 ft | 132 kts | 314° |
| 2026-05-08 01:27 | 37.51305 | 126.85086 | 1055 ft | 134 kts | 313° |
| 2026-05-08 01:27 | 37.51960 | 126.84264 | 880 ft | 132 kts | 313° |
| 2026-05-08 01:27 | 37.52615 | 126.83437 | 675 ft | 133 kts | 312° |
| 2026-05-08 01:28 | 37.53061 | 126.82872 | 586 ft | 140 kts | 311° |
| 2026-05-08 01:28 | 37.53175 | 126.82728 | 564 ft | 141 kts | 312° |
| 2026-05-08 01:28 | 37.53879 | 126.81843 | 359 ft | 142 kts | 312° |
| 2026-05-08 01:29 | 37.54568 | 126.80974 | 149 ft | 137 kts | 311° |
| 2026-05-08 01:29 | 37.55224 | 126.80150 | 60 ft | 121 kts | 315° |
| 2026-05-08 01:29 | 37.55672 | 126.79596 | 58 ft | 59 kts | 316° |
| 2026-05-08 01:29 | 37.55822 | 126.79400 | 60 ft | 15 kts | 312° |
| 2026-05-08 01:30 | 37.55901 | 126.79298 | 62 ft | 18 kts | 315° |
| 2026-05-08 01:30 | 37.55997 | 126.79178 | 62 ft | 21 kts | 315° |
| 2026-05-08 01:30 | 37.56108 | 126.79064 | 61 ft | 20 kts | 329° |
| 2026-05-08 01:30 | 37.56213 | 126.79004 | 61 ft | 12 kts | 342° |
| 2026-05-08 01:31 | 37.56286 | 126.78981 | 61 ft | 9 kts | 355° |
| 2026-05-08 01:31 | 37.56337 | 126.79012 | 63 ft | 8 kts | 53° |
| 2026-05-08 01:31 | 37.56340 | 126.79043 | 64 ft | 2 kts | 127° |
| 2026-05-08 01:31 | 37.56328 | 126.79057 | 61 ft | 3 kts | 136° |
| 2026-05-08 01:32 | 37.56309 | 126.79080 | 62 ft | 5 kts | 136° |
| 2026-05-08 01:32 | 37.56286 | 126.79120 | 59 ft | 2 kts | 109° |
| 2026-05-08 01:32 | 37.56288 | 126.79128 | 64 ft | 1 kts | 76° |
| 2026-05-08 01:32 | 37.56296 | 126.79150 | 59 ft | 4 kts | 53° |
| 2026-05-08 01:33 | 37.56324 | 126.79186 | 58 ft | 8 kts | 46° |
| 2026-05-08 01:33 | 37.56378 | 126.79254 | 62 ft | 13 kts | 45° |
| 2026-05-08 01:33 | 37.56455 | 126.79351 | 59 ft | 18 kts | 45° |
| 2026-05-08 01:33 | 37.56547 | 126.79467 | 61 ft | 19 kts | 45° |
| 2026-05-08 01:34 | 37.56638 | 126.79580 | 57 ft | 18 kts | 45° |
| 2026-05-08 01:34 | 37.56725 | 126.79690 | 66 ft | 17 kts | 45° |
| 2026-05-08 01:34 | 37.56798 | 126.79788 | 63 ft | 13 kts | 47° |
| 2026-05-08 01:34 | 37.56850 | 126.79849 | 61 ft | 9 kts | 44° |
| 2026-05-08 01:35 | 37.56895 | 126.79905 | 66 ft | 9 kts | 44° |
| 2026-05-08 01:35 | 37.56939 | 126.79960 | 63 ft | 9 kts | 45° |
| 2026-05-08 01:35 | 37.56957 | 126.80002 | 57 ft | 3 kts | 103° |
| 2026-05-08 01:35 | 37.56944 | 126.80021 | 63 ft | 3 kts | 134° |
| 2026-05-08 01:36 | 37.56924 | 126.80046 | 62 ft | 5 kts | 134° |
| 2026-05-08 01:36 | 37.56898 | 126.80079 | 62 ft | 5 kts | 134° |
| 2026-05-08 01:36 | 37.56868 | 126.80108 | 60 ft | 6 kts | 154° |
| 2026-05-08 01:36 | 37.56835 | 126.80130 | 63 ft | 5 kts | 146° |
| 2026-05-08 01:37 | 37.56806 | 126.80163 | 64 ft | 5 kts | 135° |
| 2026-05-08 01:37 | 37.56786 | 126.80188 | 65 ft | 2 kts | 134° |
| 2026-05-08 01:37 | 37.56781 | 126.80195 | 66 ft | 0 kts | 134° |